createdAt,value
2019-02-22T00:00:49.302Z,110.93
2019-02-22T00:03:17.978Z,115.13
2019-02-22T00:05:46.540Z,119.67
2019-02-22T00:08:15.174Z,117.37
2019-02-22T00:10:43.774Z,117.20
2019-02-22T00:13:12.345Z,118.67
2019-02-22T00:15:41.013Z,102.40
2019-02-22T00:18:09.661Z,113.80
2019-02-22T00:20:41.106Z,104.90
2019-02-22T00:23:08.670Z,105.23
2019-02-22T00:25:37.274Z,109.00
2019-02-22T00:28:05.895Z,96.73
2019-02-22T00:30:34.494Z,97.97
2019-02-22T00:33:03.065Z,105.90
2019-02-22T00:35:31.772Z,101.33
2019-02-22T00:38:00.282Z,99.30
2019-02-22T00:40:28.893Z,96.20
2019-02-22T00:42:57.541Z,98.37
2019-02-22T00:45:26.126Z,99.67
2019-02-22T00:47:54.686Z,90.77
2019-02-22T00:50:23.278Z,85.73
2019-02-22T00:52:51.768Z,87.13
2019-02-22T00:55:20.364Z,93.73
2019-02-22T00:57:48.936Z,93.70
2019-02-22T01:00:17.612Z,86.53
2019-02-22T01:02:46.174Z,85.10
2019-02-22T01:05:14.730Z,93.07
2019-02-22T01:07:43.336Z,83.70
2019-02-22T01:10:11.989Z,81.87
2019-02-22T01:12:40.580Z,79.97
2019-02-22T01:15:09.376Z,79.40
2019-02-22T01:17:37.974Z,91.27
2019-02-22T01:20:06.874Z,82.70
2019-02-22T01:22:35.474Z,83.73
2019-02-22T01:25:04.784Z,81.00
2019-02-22T01:27:33.407Z,79.10
2019-02-22T01:30:01.959Z,75.77
2019-02-22T01:32:30.546Z,80.10
2019-02-22T01:34:59.184Z,82.33
2019-02-22T01:37:27.778Z,79.47
2019-02-22T01:39:56.349Z,73.63
2019-02-22T01:42:24.938Z,79.67
2019-02-22T01:44:53.502Z,74.80
2019-02-22T01:47:22.082Z,73.47
2019-02-22T01:49:50.653Z,68.10
2019-02-22T01:52:19.248Z,63.73
2019-02-22T01:54:47.818Z,62.43
2019-02-22T01:57:16.407Z,55.17
2019-02-22T01:59:44.962Z,59.33
2019-02-22T02:02:13.628Z,60.70
2019-02-22T02:04:42.196Z,57.13
2019-02-22T02:07:10.858Z,54.47
2019-02-22T02:09:39.414Z,50.33
2019-02-22T02:12:07.999Z,43.43
2019-02-22T02:14:36.566Z,48.10
2019-02-22T02:17:05.167Z,52.20
2019-02-22T02:19:35.288Z,52.07
2019-02-22T02:22:03.894Z,55.37
2019-02-22T02:24:32.465Z,51.20
2019-02-22T02:27:01.085Z,49.03
2019-02-22T02:29:29.620Z,42.67
2019-02-22T02:31:58.218Z,36.87
2019-02-22T02:34:26.876Z,35.20
2019-02-22T02:36:55.477Z,34.73
2019-02-22T02:39:24.030Z,35.70
2019-02-22T02:41:52.628Z,37.77
2019-02-22T02:44:21.206Z,35.57
2019-02-22T02:46:49.820Z,34.63
2019-02-22T02:49:18.414Z,35.13
2019-02-22T02:51:46.990Z,34.37
2019-02-22T02:54:15.549Z,28.60
2019-02-22T02:56:46.300Z,32.97
2019-02-22T02:59:14.456Z,34.20
2019-02-22T03:01:43.145Z,32.23
2019-02-22T03:04:11.710Z,36.80
2019-02-22T03:06:44.409Z,35.23
2019-02-22T03:09:12.979Z,37.50
2019-02-22T03:11:41.567Z,37.57
2019-02-22T03:14:10.135Z,39.77
2019-02-22T03:16:38.728Z,36.60
2019-02-22T03:19:07.358Z,38.90
2019-02-22T03:21:36.027Z,41.20
2019-02-22T03:24:04.810Z,39.23
2019-02-22T03:26:33.459Z,48.50
2019-02-22T03:29:02.021Z,56.00
2019-02-22T03:31:30.624Z,46.00
2019-02-22T03:33:59.198Z,44.47
2019-02-22T03:36:27.797Z,52.53
2019-02-22T03:38:56.354Z,47.20
2019-02-22T03:41:32.915Z,50.53
2019-02-22T03:43:55.230Z,42.17
2019-02-22T03:46:23.792Z,41.30
2019-02-22T03:48:52.386Z,31.83
2019-02-22T03:51:20.958Z,33.60
2019-02-22T03:53:50.289Z,30.07
2019-02-22T03:56:18.843Z,25.37
2019-02-22T03:58:47.438Z,23.70
2019-02-22T04:01:15.998Z,21.63
2019-02-22T04:03:44.731Z,22.97
2019-02-22T04:06:13.294Z,19.70
2019-02-22T04:08:41.895Z,18.20
2019-02-22T04:11:10.459Z,20.97
2019-02-22T04:13:39.118Z,17.50
2019-02-22T04:16:07.690Z,18.10
2019-02-22T04:18:36.294Z,17.43
2019-02-22T04:21:04.935Z,18.70
2019-02-22T04:23:33.527Z,17.87
2019-02-22T04:26:02.079Z,17.57
2019-02-22T04:28:30.679Z,16.67
2019-02-22T04:30:59.375Z,16.33
2019-02-22T04:33:27.974Z,15.90
2019-02-22T04:35:56.535Z,17.60
2019-02-22T04:38:25.196Z,14.97
2019-02-22T04:40:53.759Z,15.23
2019-02-22T04:43:22.358Z,15.73
2019-02-22T04:45:50.927Z,14.73
2019-02-22T04:48:19.518Z,14.03
2019-02-22T04:50:48.087Z,11.70
2019-02-22T04:53:16.676Z,15.67
2019-02-22T04:55:45.238Z,10.80
2019-02-22T04:58:13.834Z,10.97
2019-02-22T05:00:42.396Z,11.23
2019-02-22T05:03:10.983Z,9.70
2019-02-22T05:05:39.542Z,9.97
2019-02-22T05:08:08.213Z,10.53
2019-02-22T05:10:36.860Z,9.30
2019-02-22T05:13:05.486Z,10.77
2019-02-22T05:15:34.043Z,10.13
2019-02-22T05:18:02.675Z,9.63
2019-02-22T05:20:31.238Z,11.03
2019-02-22T05:23:03.971Z,10.17
2019-02-22T05:25:30.116Z,8.67
2019-02-22T05:27:58.713Z,8.00
2019-02-22T05:30:27.272Z,8.80
2019-02-22T05:32:55.932Z,8.77
2019-02-22T05:35:24.482Z,9.57
2019-02-22T05:37:53.010Z,10.60
2019-02-22T05:40:21.567Z,10.23
2019-02-22T05:42:50.154Z,9.80
2019-02-22T05:45:18.716Z,9.17
2019-02-22T05:47:47.312Z,10.10
2019-02-22T05:50:15.866Z,9.33
2019-02-22T05:52:44.458Z,8.60
2019-02-22T05:55:13.014Z,9.07
2019-02-22T05:57:41.623Z,9.33
2019-02-22T06:00:10.243Z,9.00
2019-02-22T06:02:38.836Z,8.50
2019-02-22T06:05:07.635Z,9.20
2019-02-22T06:07:36.238Z,7.80
2019-02-22T06:10:07.915Z,8.10
2019-02-22T06:12:36.530Z,7.93
2019-02-22T06:15:06.626Z,7.70
2019-02-22T06:17:35.239Z,7.63
2019-02-22T06:20:06.401Z,7.03
2019-02-22T06:22:35.195Z,6.57
2019-02-22T06:25:03.787Z,6.80
2019-02-22T06:27:32.349Z,6.83
2019-02-22T06:30:00.915Z,7.20
2019-02-22T06:32:29.467Z,6.30
2019-02-22T06:34:58.082Z,6.70
2019-02-22T06:37:26.654Z,7.10
2019-02-22T06:39:55.273Z,7.00
2019-02-22T06:42:23.832Z,7.00
2019-02-22T06:44:52.417Z,6.50
2019-02-22T06:47:22.885Z,5.80
2019-02-22T06:49:51.214Z,5.73
2019-02-22T06:52:19.839Z,5.73
2019-02-22T06:54:48.465Z,5.97
2019-02-22T06:57:17.024Z,5.90
2019-02-22T06:59:45.621Z,6.17
2019-02-22T07:02:14.175Z,6.23
2019-02-22T07:04:42.761Z,6.30
2019-02-22T07:07:11.321Z,5.83
2019-02-22T07:09:39.874Z,5.43
2019-02-22T07:12:12.873Z,5.73
2019-02-22T07:14:41.471Z,6.67
2019-02-22T07:17:10.195Z,6.57
2019-02-22T07:19:38.755Z,7.60
2019-02-22T07:22:07.346Z,6.73
2019-02-22T07:24:35.911Z,6.63
2019-02-22T07:27:04.579Z,8.00
2019-02-22T07:29:33.138Z,7.90
2019-02-22T07:32:05.876Z,9.17
2019-02-22T07:34:31.928Z,8.13
2019-02-22T07:37:00.507Z,8.17
2019-02-22T07:39:29.086Z,8.13
2019-02-22T07:41:57.669Z,8.13
2019-02-22T07:44:26.215Z,8.07
2019-02-22T07:46:54.811Z,8.17
2019-02-22T07:49:25.617Z,8.10
2019-02-22T07:51:54.206Z,7.70
2019-02-22T07:54:22.755Z,7.40
2019-02-22T07:56:51.339Z,7.37
2019-02-22T07:59:19.899Z,7.73
2019-02-22T08:01:48.526Z,7.63
2019-02-22T08:04:17.060Z,8.13
2019-02-22T08:06:45.659Z,7.50
2019-02-22T08:09:14.223Z,7.43
2019-02-22T08:11:42.811Z,6.47
2019-02-22T08:14:11.370Z,3.20
2019-02-22T08:16:39.958Z,1.60
2019-02-22T08:19:11.077Z,1.40
2019-02-22T08:21:38.749Z,1.70
2019-02-22T08:24:07.306Z,1.30
2019-02-22T08:26:35.968Z,2.33
2019-02-22T08:29:04.531Z,1.60
2019-02-22T08:31:33.124Z,1.97
2019-02-22T08:34:01.686Z,2.27
2019-02-22T08:36:30.272Z,1.70
2019-02-22T08:38:58.835Z,1.60
2019-02-22T08:41:27.494Z,2.27
2019-02-22T08:43:56.053Z,2.47
2019-02-22T08:46:24.711Z,2.50
2019-02-22T08:48:53.268Z,2.70
2019-02-22T08:51:21.857Z,3.30
2019-02-22T08:53:50.415Z,3.17
2019-02-22T08:56:18.995Z,4.07
2019-02-22T08:58:47.571Z,4.30
2019-02-22T09:01:16.155Z,4.50
2019-02-22T09:03:50.509Z,5.27
2019-02-22T09:06:14.946Z,4.87
2019-02-22T09:08:43.543Z,4.73
2019-02-22T09:11:12.213Z,4.47
2019-02-22T09:14:00.187Z,3.93
2019-02-22T09:16:28.697Z,4.90
2019-02-22T09:18:57.258Z,4.40
2019-02-22T09:21:25.915Z,4.63
2019-02-22T09:23:54.474Z,5.17
2019-02-22T09:26:23.057Z,4.90
2019-02-22T09:28:51.619Z,5.63
2019-02-22T09:31:20.207Z,5.93
2019-02-22T09:33:48.780Z,6.53
2019-02-22T09:36:17.395Z,6.33
2019-02-22T09:38:45.959Z,7.40
2019-02-22T09:41:14.551Z,6.60
2019-02-22T09:43:54.325Z,7.70
2019-02-22T09:46:13.369Z,6.97
2019-02-22T09:48:41.898Z,7.27
2019-02-22T09:51:10.492Z,8.27
2019-02-22T09:53:39.049Z,8.00
2019-02-22T09:56:07.637Z,8.40
2019-02-22T09:58:36.244Z,8.43
2019-02-22T10:01:04.809Z,8.50
2019-02-22T10:03:33.352Z,9.40
2019-02-22T10:06:01.952Z,9.30
2019-02-22T10:08:30.517Z,9.07
2019-02-22T10:10:59.118Z,8.90
2019-02-22T10:13:27.861Z,8.60
2019-02-22T10:15:56.461Z,8.50
2019-02-22T10:18:25.015Z,8.43
2019-02-22T10:20:53.690Z,8.27
2019-02-22T10:23:22.312Z,7.57
2019-02-22T10:25:50.849Z,8.53
2019-02-22T10:28:19.408Z,10.33
2019-02-22T10:30:47.995Z,10.87
2019-02-22T10:33:16.569Z,10.50
2019-02-22T10:35:45.167Z,10.47
2019-02-22T10:38:13.739Z,11.63
2019-02-22T10:40:42.307Z,10.97
2019-02-22T10:43:10.899Z,11.30
2019-02-22T10:45:39.471Z,10.97
2019-02-22T10:48:08.067Z,12.60
2019-02-22T10:50:36.640Z,10.93
2019-02-22T10:53:05.243Z,11.87
2019-02-22T10:55:33.810Z,12.13
2019-02-22T10:58:02.419Z,10.90
2019-02-22T11:00:32.453Z,12.80
2019-02-22T11:03:01.140Z,12.33
2019-02-22T11:05:29.711Z,11.03
2019-02-22T11:07:58.299Z,11.50
2019-02-22T11:10:26.873Z,12.60
2019-02-22T11:12:55.467Z,13.60
2019-02-22T11:15:24.053Z,15.10
2019-02-22T11:17:52.639Z,15.50
2019-02-22T11:20:21.199Z,17.10
2019-02-22T11:22:49.815Z,19.20
2019-02-22T11:25:18.392Z,22.03
2019-02-22T11:27:47.161Z,20.57
2019-02-22T11:30:16.849Z,21.20
2019-02-22T11:32:47.397Z,19.63
2019-02-22T11:35:15.663Z,20.53
2019-02-22T11:37:44.259Z,23.87
2019-02-22T11:40:12.839Z,23.33
2019-02-22T11:42:41.445Z,21.83
2019-02-22T11:45:10.753Z,22.83
2019-02-22T11:47:39.347Z,23.50
2019-02-22T11:50:12.911Z,22.33
2019-02-22T11:52:41.523Z,21.37
2019-02-22T11:55:11.050Z,20.87
2019-02-22T11:57:39.688Z,23.13
2019-02-22T12:00:13.011Z,20.67
2019-02-22T12:02:41.793Z,21.73
2019-02-22T12:05:10.415Z,21.03
2019-02-22T12:07:39.151Z,18.30
2019-02-22T12:10:08.795Z,20.33
2019-02-22T12:12:37.395Z,18.50
2019-02-22T12:15:09.069Z,19.67
2019-02-22T12:17:37.687Z,19.10
2019-02-22T12:20:07.987Z,20.83
2019-02-22T12:22:36.587Z,19.73
2019-02-22T12:25:07.999Z,19.47
2019-02-22T12:27:36.599Z,20.97
2019-02-22T12:30:08.244Z,22.73
2019-02-22T12:32:39.443Z,19.83
2019-02-22T12:35:07.589Z,19.87
2019-02-22T12:37:36.785Z,19.40
2019-02-22T12:40:07.987Z,20.57
2019-02-22T12:42:36.635Z,20.90
2019-02-22T12:45:08.011Z,19.30
2019-02-22T12:47:36.605Z,19.83
2019-02-22T12:50:10.551Z,20.33
2019-02-22T12:52:39.157Z,23.10
2019-02-22T12:55:09.559Z,27.33
2019-02-22T12:57:38.219Z,18.70
2019-02-22T13:00:12.423Z,21.47
2019-02-22T13:02:41.080Z,16.73
2019-02-22T13:05:12.283Z,16.67
2019-02-22T13:07:40.891Z,18.60
2019-02-22T13:10:09.713Z,17.93
2019-02-22T13:12:38.309Z,14.57
2019-02-22T13:15:14.332Z,14.00
2019-02-22T13:17:42.374Z,13.60
2019-02-22T13:20:10.991Z,13.47
2019-02-22T13:22:39.583Z,11.23
2019-02-22T13:25:11.547Z,9.33
2019-02-22T13:27:40.127Z,10.40
2019-02-22T13:30:14.037Z,9.20
2019-02-22T13:32:42.636Z,7.60
2019-02-22T13:35:11.767Z,8.80
2019-02-22T13:37:40.489Z,8.03
2019-02-22T13:40:12.191Z,8.27
2019-02-22T13:42:40.853Z,6.87
2019-02-22T13:45:11.930Z,6.43
2019-02-22T13:47:40.519Z,6.27
2019-02-22T13:50:17.067Z,5.83
2019-02-22T13:52:45.710Z,6.50
2019-02-22T13:55:14.739Z,5.97
2019-02-22T13:57:43.337Z,5.63
2019-02-22T14:00:18.839Z,5.67
2019-02-22T14:02:47.539Z,5.43
2019-02-22T14:05:16.171Z,5.47
2019-02-22T14:07:55.220Z,5.12
2019-02-22T14:10:24.716Z,5.22
2019-02-22T14:12:53.476Z,5.20
2019-02-22T14:15:22.368Z,5.08
2019-02-22T14:17:51.031Z,5.05
2019-02-22T14:20:19.599Z,5.87
2019-02-22T14:22:49.943Z,6.23
2019-02-22T14:25:18.585Z,5.90
2019-02-22T14:27:47.175Z,6.93
2019-02-22T14:30:17.179Z,5.80
2019-02-22T14:32:46.323Z,5.80
2019-02-22T14:35:14.952Z,6.77
2019-02-22T14:37:43.854Z,7.93
2019-02-22T14:40:15.108Z,6.30
2019-02-22T14:42:43.699Z,7.10
2019-02-22T14:45:12.620Z,7.27
2019-02-22T14:47:41.212Z,7.87
2019-02-22T14:50:19.152Z,8.00
2019-02-22T14:52:47.751Z,8.33
2019-02-22T14:55:16.303Z,8.23
2019-02-22T14:57:45.407Z,9.03
2019-02-22T15:00:19.013Z,10.20
2019-02-22T15:02:47.589Z,9.80
2019-02-22T15:05:16.393Z,8.43
2019-02-22T15:07:44.963Z,8.03
2019-02-22T15:10:13.699Z,8.00
2019-02-22T15:12:42.341Z,8.40
2019-02-22T15:15:13.283Z,6.47
2019-02-22T15:17:43.554Z,7.23
2019-02-22T15:20:12.217Z,7.17
2019-02-22T15:22:40.802Z,7.20
2019-02-22T15:25:11.628Z,7.47
2019-02-22T15:27:40.194Z,7.63
2019-02-22T15:30:11.636Z,7.80
2019-02-22T15:32:40.203Z,7.90
2019-02-22T15:35:14.232Z,7.53
2019-02-22T15:37:43.416Z,8.07
2019-02-22T15:40:13.386Z,8.53
2019-02-22T15:42:41.948Z,8.07
2019-02-22T15:45:18.509Z,7.23
2019-02-22T15:47:48.813Z,8.33
2019-02-22T15:50:18.331Z,7.93
2019-02-22T15:52:48.206Z,7.47
2019-02-22T15:55:16.935Z,8.13
2019-02-22T15:57:45.559Z,8.47
2019-02-22T16:00:23.159Z,8.60
2019-02-22T16:02:51.795Z,8.23
2019-02-22T16:05:34.296Z,9.23
2019-02-22T16:08:02.852Z,9.37
2019-02-22T16:10:31.676Z,10.07
2019-02-22T16:13:00.339Z,10.63
2019-02-22T16:15:28.997Z,10.90
2019-02-22T16:17:57.557Z,9.57
2019-02-22T16:20:26.149Z,10.33
2019-02-22T16:22:54.726Z,9.00
2019-02-22T16:25:23.351Z,8.90
2019-02-22T16:27:51.979Z,9.50
2019-02-22T16:30:22.217Z,8.40
2019-02-22T16:32:50.784Z,11.83
2019-02-22T16:35:19.440Z,11.70
2019-02-22T16:37:48.108Z,13.67
2019-02-22T16:40:16.683Z,8.00
2019-02-22T16:42:45.315Z,9.73
2019-02-22T16:45:14.269Z,10.80
2019-02-22T16:47:42.826Z,11.00
2019-02-22T16:50:12.699Z,12.73
2019-02-22T16:52:41.246Z,12.53
2019-02-22T16:55:16.758Z,10.30
2019-02-22T16:57:45.419Z,10.67
2019-02-22T17:00:16.526Z,10.97
2019-02-22T17:02:45.095Z,11.83
2019-02-22T17:05:15.820Z,10.07
2019-02-22T17:07:44.380Z,14.53
2019-02-22T17:10:13.118Z,12.00
2019-02-22T17:12:41.684Z,13.43
2019-02-22T17:15:12.002Z,11.57
2019-02-22T17:17:40.568Z,29.37
2019-02-22T17:20:16.654Z,57.03
2019-02-22T17:22:45.215Z,29.40
2019-02-22T17:25:21.710Z,16.87
2019-02-22T17:27:50.280Z,15.17
2019-02-22T17:30:20.762Z,12.47
2019-02-22T17:32:49.364Z,10.57
2019-02-22T17:35:18.032Z,11.97
2019-02-22T17:37:46.628Z,12.37
2019-02-22T17:40:20.527Z,10.30
2019-02-22T17:42:49.123Z,10.93
2019-02-22T17:45:17.760Z,13.30
2019-02-22T17:47:46.357Z,10.37
2019-02-22T17:50:14.920Z,11.53
2019-02-22T17:52:43.502Z,11.57
2019-02-22T17:55:12.067Z,10.50
2019-02-22T17:57:40.664Z,11.80
2019-02-22T18:00:16.148Z,11.73
2019-02-22T18:02:44.713Z,12.00
2019-02-22T18:05:13.492Z,13.47
2019-02-22T18:07:42.045Z,10.97
2019-02-22T18:10:11.584Z,10.97
2019-02-22T18:12:40.143Z,11.33
2019-02-22T18:15:11.814Z,12.73
2019-02-22T18:17:41.923Z,12.47
2019-02-22T18:20:10.518Z,11.37
2019-02-22T18:22:39.082Z,11.77
2019-02-22T18:25:09.119Z,11.53
2019-02-22T18:27:37.683Z,13.20
2019-02-22T18:30:15.335Z,15.27
2019-02-22T18:32:43.891Z,12.33
2019-02-22T18:35:12.562Z,15.00
2019-02-22T18:37:41.123Z,12.03
2019-02-22T18:40:12.527Z,11.90
2019-02-22T18:42:41.160Z,13.03
2019-02-22T18:45:10.604Z,13.13
2019-02-22T18:47:39.166Z,13.67
2019-02-22T18:50:09.994Z,13.17
2019-02-22T18:52:38.574Z,16.67
2019-02-22T18:55:09.206Z,16.47
2019-02-22T18:57:37.776Z,15.70
2019-02-22T19:00:10.159Z,18.57
2019-02-22T19:02:38.780Z,13.47
2019-02-22T19:05:08.749Z,17.23
2019-02-22T19:07:37.324Z,17.63
2019-02-22T19:10:26.766Z,15.60
2019-02-22T19:12:55.336Z,14.37
2019-02-22T19:15:23.932Z,17.07
2019-02-22T19:17:52.483Z,13.23
2019-02-22T19:20:21.559Z,15.43
2019-02-22T19:22:50.146Z,14.77
2019-02-22T19:25:18.901Z,16.00
2019-02-22T19:27:47.520Z,14.97
2019-02-22T19:30:20.494Z,17.30
2019-02-22T19:32:49.069Z,13.67
2019-02-22T19:35:17.645Z,14.60
2019-02-22T19:37:46.139Z,13.77
2019-02-22T19:40:17.426Z,14.17
2019-02-22T19:42:45.913Z,15.47
2019-02-22T19:45:14.678Z,12.47
2019-02-22T19:47:43.222Z,14.93
2019-02-22T19:50:13.658Z,13.97
2019-02-22T19:52:42.277Z,12.70
2019-02-22T19:55:13.171Z,13.73
2019-02-22T19:57:41.758Z,13.97
2019-02-22T20:00:17.498Z,16.37
2019-02-22T20:02:46.159Z,11.07
2019-02-22T20:05:15.354Z,14.30
2019-02-22T20:07:44.190Z,15.93
2019-02-22T20:10:21.498Z,13.67
2019-02-22T20:12:50.107Z,13.27
2019-02-22T20:15:18.862Z,14.53
2019-02-22T20:17:53.815Z,14.40
2019-02-22T20:20:19.599Z,14.53
2019-02-22T20:22:48.194Z,16.70
2019-02-22T20:25:16.998Z,12.43
2019-02-22T20:27:45.582Z,12.33
2019-02-22T20:30:15.585Z,12.40
2019-02-22T20:32:44.171Z,12.53
2019-02-22T20:35:18.737Z,12.50
2019-02-22T20:37:52.636Z,12.23
2019-02-22T20:40:17.538Z,16.50
2019-02-22T20:42:46.118Z,12.03
2019-02-22T20:45:14.669Z,11.43
2019-02-22T20:47:43.274Z,12.27
2019-02-22T20:50:12.775Z,11.37
2019-02-22T20:52:41.366Z,10.40
2019-02-22T20:55:10.798Z,12.83
2019-02-22T20:57:39.387Z,11.43
2019-02-22T21:00:13.942Z,15.27
2019-02-22T21:02:42.526Z,11.30
2019-02-22T21:05:11.082Z,10.70
2019-02-22T21:07:39.676Z,14.70
2019-02-22T21:10:11.346Z,13.17
2019-02-22T21:12:39.902Z,10.93
2019-02-22T21:15:13.067Z,10.00
2019-02-22T21:17:41.685Z,9.70
2019-02-22T21:20:13.340Z,11.03
2019-02-22T21:22:41.834Z,12.97
2019-02-22T21:25:11.190Z,12.43
2019-02-22T21:27:39.814Z,11.53
2019-02-22T21:30:14.077Z,9.00
2019-02-22T21:32:42.630Z,10.83
2019-02-22T21:35:11.386Z,11.70
2019-02-22T21:37:41.597Z,11.50
2019-02-22T21:40:11.504Z,9.93
2019-02-22T21:42:40.132Z,11.27
2019-02-22T21:45:11.522Z,10.27
2019-02-22T21:47:40.086Z,11.17
2019-02-22T21:50:11.206Z,12.57
2019-02-22T21:52:39.754Z,9.97
2019-02-22T21:55:10.778Z,11.27
2019-02-22T21:57:39.398Z,9.17
2019-02-22T22:00:21.370Z,10.47
2019-02-22T22:02:49.926Z,11.97
2019-02-22T22:05:18.518Z,9.37
2019-02-22T22:07:47.066Z,12.23
2019-02-22T22:10:15.649Z,10.30
2019-02-22T22:12:44.212Z,13.87
2019-02-22T22:15:14.320Z,9.90
2019-02-22T22:17:42.800Z,9.70
2019-02-22T22:20:11.930Z,9.77
2019-02-22T22:22:40.467Z,9.67
2019-02-22T22:25:11.015Z,12.10
2019-02-22T22:27:39.567Z,11.13
2019-02-22T22:30:11.235Z,9.93
2019-02-22T22:32:39.778Z,12.13
2019-02-22T22:35:10.807Z,11.77
2019-02-22T22:37:39.430Z,13.03
2019-02-22T22:40:10.073Z,11.60
2019-02-22T22:42:38.618Z,11.03
2019-02-22T22:45:09.639Z,9.63
2019-02-22T22:47:38.196Z,10.73
2019-02-22T22:50:09.718Z,8.93
2019-02-22T22:52:38.285Z,12.47
2019-02-22T22:55:08.328Z,12.47
2019-02-22T22:57:36.948Z,10.17
2019-02-22T23:00:11.286Z,11.00
2019-02-22T23:02:39.915Z,12.87
2019-02-22T23:05:08.702Z,11.07
2019-02-22T23:07:37.250Z,9.50
2019-02-22T23:10:06.638Z,9.33
2019-02-22T23:12:35.232Z,11.97
2019-02-22T23:15:04.360Z,10.37
2019-02-22T23:17:32.952Z,13.07
2019-02-22T23:20:01.503Z,11.37
2019-02-22T23:22:30.082Z,10.37
2019-02-22T23:24:58.714Z,10.63
2019-02-22T23:27:27.222Z,14.53
2019-02-22T23:29:55.766Z,8.87
2019-02-22T23:32:24.345Z,13.30
2019-02-22T23:34:52.826Z,11.07
2019-02-22T23:37:21.334Z,8.13
2019-02-22T23:39:49.905Z,9.83
2019-02-22T23:42:18.478Z,14.97
2019-02-22T23:44:47.026Z,12.00
2019-02-22T23:47:15.606Z,10.00
2019-02-22T23:49:44.154Z,11.40
2019-02-22T23:52:12.730Z,10.70
2019-02-22T23:54:41.284Z,14.53
2019-02-22T23:57:09.868Z,8.83
2019-02-22T23:59:38.417Z,11.57
